createdAt,value
2022-12-01T00:01:22.202Z,5.53
2022-12-01T00:05:01.706Z,5.57
2022-12-01T00:08:24.081Z,5.15
2022-12-01T00:11:54.582Z,5.28
2022-12-01T00:15:31.884Z,5.53
2022-12-01T00:22:26.798Z,6.12
2022-12-01T00:33:44.650Z,5.97
2022-12-01T00:37:00.661Z,5.03
2022-12-01T00:40:16.649Z,4.55
2022-12-01T00:43:26.718Z,5.68
2022-12-01T00:46:37.640Z,5.03
2022-12-01T00:49:46.898Z,5.37
2022-12-01T00:52:57.654Z,4.67
2022-12-01T00:56:06.561Z,5.03
2022-12-01T00:59:28.665Z,5.93
2022-12-01T01:02:41.034Z,5.25
2022-12-01T01:05:51.770Z,5.87
2022-12-01T01:09:00.244Z,5.40
2022-12-01T01:12:08.706Z,5.53
2022-12-01T01:15:27.729Z,5.97
2022-12-01T01:18:35.639Z,5.75
2022-12-01T01:21:51.614Z,5.43
2022-12-01T01:25:09.623Z,5.77
2022-12-01T01:28:19.039Z,6.40
2022-12-01T01:31:36.829Z,6.05
2022-12-01T01:34:46.905Z,5.55
2022-12-01T01:38:05.676Z,5.80
2022-12-01T01:41:16.131Z,6.30
2022-12-01T01:44:51.574Z,5.30
2022-12-01T01:48:27.866Z,5.30
2022-12-01T01:51:37.017Z,5.12
2022-12-01T01:55:14.704Z,6.07
2022-12-01T01:58:24.070Z,5.70
2022-12-01T02:01:34.072Z,5.15
2022-12-01T02:04:47.950Z,5.75
2022-12-01T02:08:04.691Z,5.57
2022-12-01T02:11:42.434Z,5.40
2022-12-01T02:15:20.827Z,5.47
2022-12-01T02:18:45.905Z,5.90
2022-12-01T02:22:29.695Z,6.32
2022-12-01T02:26:22.741Z,6.18
2022-12-01T02:30:07.027Z,5.80
2022-12-01T02:33:35.842Z,5.83
2022-12-01T02:37:01.710Z,5.25
2022-12-01T02:40:21.662Z,6.10
2022-12-01T02:43:50.606Z,5.90
2022-12-01T02:47:03.512Z,6.05
2022-12-01T02:50:19.679Z,6.03
2022-12-01T02:53:22.022Z,5.35
2022-12-01T02:56:36.605Z,6.03
2022-12-01T02:59:41.798Z,5.40
2022-12-01T03:03:25.248Z,5.03
2022-12-01T03:07:21.083Z,5.87
2022-12-01T03:10:45.324Z,5.30
2022-12-01T03:14:43.041Z,4.87
2022-12-01T03:18:23.820Z,5.47
2022-12-01T03:21:35.063Z,5.62
2022-12-01T03:24:55.658Z,5.80
2022-12-01T03:28:20.625Z,5.90
2022-12-01T03:31:39.735Z,5.87
2022-12-01T03:34:54.574Z,5.50
2022-12-01T03:38:19.671Z,5.43
2022-12-01T03:41:27.905Z,5.37
2022-12-01T03:44:51.938Z,4.82
2022-12-01T03:48:09.707Z,5.62
2022-12-01T03:51:44.967Z,5.60
2022-12-01T03:55:11.763Z,6.22
2022-12-01T03:58:41.722Z,6.57
2022-12-01T04:01:51.817Z,5.87
2022-12-01T04:05:03.825Z,5.75
2022-12-01T04:08:26.690Z,5.95
2022-12-01T04:11:35.369Z,6.00
2022-12-01T04:14:43.686Z,6.20
2022-12-01T04:17:55.209Z,5.75
2022-12-01T04:21:17.729Z,4.93
2022-12-01T04:24:33.811Z,5.82
2022-12-01T04:27:36.045Z,6.10
2022-12-01T04:30:50.647Z,6.00
2022-12-01T04:34:05.063Z,5.60
2022-12-01T04:37:21.515Z,5.82
2022-12-01T04:40:29.778Z,5.47
2022-12-01T04:43:56.970Z,6.10
2022-12-01T04:47:03.794Z,4.90
2022-12-01T04:50:19.726Z,5.45
2022-12-01T04:57:05.701Z,5.03
2022-12-01T05:00:08.080Z,5.25
2022-12-01T05:03:33.803Z,4.43
2022-12-01T05:06:54.475Z,5.18
2022-12-01T05:10:10.647Z,5.70
2022-12-01T05:13:18.768Z,6.00
2022-12-01T05:16:40.777Z,5.07
2022-12-01T05:19:49.859Z,5.43
2022-12-01T05:23:06.565Z,5.75
2022-12-01T05:26:15.730Z,5.32
2022-12-01T05:29:24.306Z,5.35
2022-12-01T05:32:33.009Z,5.65
2022-12-01T05:35:57.692Z,5.20
2022-12-01T05:38:59.887Z,5.90
2022-12-01T05:42:15.120Z,6.40
2022-12-01T05:45:17.295Z,6.07
2022-12-01T05:48:34.998Z,5.70
2022-12-01T05:51:36.947Z,5.77
2022-12-01T05:54:59.200Z,5.65
2022-12-01T05:58:01.623Z,6.10
2022-12-01T06:01:16.958Z,6.05
2022-12-01T06:04:18.748Z,6.80
2022-12-01T06:07:39.729Z,6.43
2022-12-01T06:10:41.756Z,5.60
2022-12-01T06:14:18.730Z,6.32
2022-12-01T06:17:23.581Z,7.25
2022-12-01T06:20:39.688Z,6.80
2022-12-01T06:23:58.762Z,7.17
2022-12-01T06:27:07.475Z,6.55
2022-12-01T06:30:15.835Z,6.80
2022-12-01T06:41:37.686Z,7.47
2022-12-01T06:55:50.200Z,8.30
2022-12-01T07:03:13.551Z,8.93
2022-12-01T07:14:46.074Z,7.75
2022-12-01T07:18:05.907Z,9.75
2022-12-01T07:21:47.731Z,9.27
2022-12-01T07:25:02.834Z,9.52
2022-12-01T07:28:19.559Z,10.00
2022-12-01T07:39:19.820Z,9.32
2022-12-01T07:42:39.913Z,8.95
2022-12-01T07:54:07.589Z,11.43
2022-12-01T07:58:19.495Z,11.20
2022-12-01T08:02:17.317Z,10.77
2022-12-01T08:37:19.287Z,9.38
2022-12-01T09:21:23.041Z,9.30
2022-12-01T09:29:00.564Z,9.05
2022-12-01T09:45:34.722Z,7.03
2022-12-01T11:55:29.351Z,7.17
2022-12-01T12:19:52.485Z,6.53
2022-12-01T12:23:36.796Z,7.30
2022-12-01T12:35:01.764Z,7.03
2022-12-01T12:47:19.921Z,7.35
2022-12-01T12:59:26.908Z,6.97
2022-12-01T13:29:47.317Z,3.53
2022-12-01T13:33:48.042Z,3.57
2022-12-01T13:37:00.851Z,4.10
2022-12-01T13:40:35.045Z,5.28
2022-12-01T14:27:38.771Z,4.10
2022-12-01T14:35:01.780Z,3.75
2022-12-01T14:38:34.804Z,4.37
2022-12-01T14:57:07.362Z,4.43
2022-12-01T15:00:24.137Z,4.57
2022-12-01T15:16:28.916Z,5.22
2022-12-01T15:20:04.824Z,4.20
2022-12-01T15:27:03.666Z,4.57
2022-12-01T15:30:20.921Z,5.03
2022-12-01T15:33:37.163Z,3.72
2022-12-01T15:36:52.776Z,5.23
2022-12-01T15:41:27.462Z,5.20
2022-12-01T15:44:37.758Z,4.90
2022-12-01T15:51:44.983Z,4.30
2022-12-01T16:06:41.781Z,4.85
2022-12-01T16:10:37.793Z,5.10
2022-12-01T16:14:21.879Z,5.50
2022-12-01T16:29:59.867Z,5.05
2022-12-01T16:45:50.834Z,5.55
2022-12-01T16:49:05.767Z,5.95
2022-12-01T16:56:33.830Z,5.90
2022-12-01T16:59:55.905Z,5.90
2022-12-01T17:03:51.762Z,6.25
2022-12-01T17:07:06.837Z,6.25
2022-12-01T17:14:06.842Z,6.30
2022-12-01T17:17:21.934Z,5.78
2022-12-01T17:20:38.534Z,7.55
2022-12-01T17:24:09.490Z,6.45
2022-12-01T17:27:45.800Z,5.83
2022-12-01T17:30:53.888Z,6.33
2022-12-01T17:45:10.346Z,7.10
2022-12-01T17:48:24.757Z,6.50
2022-12-01T17:54:58.406Z,8.10
2022-12-01T17:58:12.849Z,7.32
2022-12-01T18:01:33.914Z,7.27
2022-12-01T18:07:55.833Z,7.90
2022-12-01T18:11:14.746Z,7.75
2022-12-01T18:14:31.777Z,7.80
2022-12-01T18:17:40.309Z,6.77
2022-12-01T18:20:49.746Z,7.57
2022-12-01T18:24:07.761Z,7.90
2022-12-01T18:27:33.014Z,7.30
2022-12-01T18:30:58.827Z,8.63
2022-12-01T18:38:11.778Z,8.13
2022-12-01T18:41:45.939Z,8.88
2022-12-01T18:45:23.041Z,8.00
2022-12-01T18:53:42.880Z,9.67
2022-12-01T18:56:59.779Z,10.43
2022-12-01T19:00:08.849Z,10.85
2022-12-01T19:03:23.853Z,9.15
2022-12-01T19:10:15.786Z,9.00
2022-12-01T19:13:17.661Z,8.50
2022-12-01T19:16:34.886Z,8.77
2022-12-01T19:19:37.703Z,8.30
2022-12-01T19:22:54.877Z,8.75
2022-12-01T19:29:16.875Z,8.90
2022-12-01T19:32:31.890Z,8.93
2022-12-01T19:35:40.470Z,8.45
2022-12-01T19:38:55.823Z,8.95
2022-12-01T19:42:05.511Z,8.43
2022-12-01T19:45:14.827Z,8.60
2022-12-01T19:48:23.361Z,9.95
2022-12-01T19:51:40.785Z,9.15
2022-12-01T19:54:55.871Z,8.65
2022-12-01T19:57:57.563Z,8.73
2022-12-01T20:01:15.851Z,8.95
2022-12-01T20:04:17.638Z,8.88
2022-12-01T20:07:32.047Z,9.50
2022-12-01T20:14:57.892Z,8.27
2022-12-01T20:18:05.778Z,7.62
2022-12-01T20:21:19.914Z,9.23
2022-12-01T20:24:54.754Z,8.88
2022-12-01T20:28:09.839Z,9.13
2022-12-01T20:31:17.326Z,8.60
2022-12-01T20:34:37.843Z,8.27
2022-12-01T20:37:39.385Z,8.10
2022-12-01T20:41:00.846Z,8.07
2022-12-01T20:44:09.835Z,7.78
2022-12-01T20:47:17.834Z,8.00
2022-12-01T20:50:26.539Z,8.23
2022-12-01T20:53:34.824Z,9.35
2022-12-01T20:56:49.805Z,8.48
2022-12-01T20:59:51.566Z,9.05
2022-12-01T21:03:05.882Z,9.70
2022-12-01T21:10:36.358Z,9.38
2022-12-01T21:13:46.277Z,9.27
2022-12-01T21:17:06.014Z,10.07
2022-12-01T21:24:54.289Z,10.25
2022-12-01T21:32:05.907Z,9.50
2022-12-01T21:42:57.873Z,9.52
2022-12-01T21:46:19.895Z,9.90
2022-12-01T21:54:16.546Z,9.18
2022-12-01T21:58:24.830Z,10.90
2022-12-01T22:01:34.535Z,9.13
2022-12-01T22:04:44.105Z,10.13
2022-12-01T22:11:38.141Z,11.30
2022-12-01T22:14:53.136Z,9.40
2022-12-01T22:18:37.723Z,10.52
2022-12-01T22:21:55.914Z,10.00
2022-12-01T22:25:28.851Z,10.50
2022-12-01T22:28:30.641Z,9.45
2022-12-01T22:31:45.854Z,8.23
2022-12-01T22:35:03.821Z,9.85
2022-12-01T22:38:33.855Z,8.88
2022-12-01T22:41:42.411Z,9.90
2022-12-01T22:44:56.826Z,10.02
2022-12-01T22:48:31.533Z,9.50
2022-12-01T22:51:47.837Z,10.32
2022-12-01T22:55:21.786Z,9.50
2022-12-01T22:58:36.836Z,10.25
2022-12-01T23:01:52.636Z,9.32
2022-12-01T23:05:04.837Z,9.27
2022-12-01T23:08:28.801Z,9.52
2022-12-01T23:11:30.486Z,9.38
2022-12-01T23:14:53.052Z,9.13
2022-12-01T23:17:55.109Z,9.23
2022-12-01T23:21:09.864Z,8.37
2022-12-01T23:24:21.955Z,9.00
2022-12-01T23:27:30.837Z,9.27
2022-12-01T23:30:39.818Z,9.43
2022-12-01T23:33:54.822Z,9.48
2022-12-01T23:37:02.857Z,9.67
2022-12-01T23:40:31.266Z,9.10
2022-12-01T23:43:44.874Z,9.25
2022-12-01T23:47:02.828Z,8.73
2022-12-01T23:50:13.225Z,9.02
2022-12-01T23:53:32.898Z,7.93
2022-12-01T23:56:37.798Z,9.00
2022-12-01T23:59:52.871Z,9.35
